Time;durP1;ratioP1;P1;durP2;ratioP2;P2;SDS_P1;SDS_P2;PMS_P1;PMS_P2;Temp;Humidity;BMP_temperature;BMP_pressure;BME280_temperature;BME280_humidity;BME280_pressure;Samples;Min_cycle;Max_cycle;Signal;HPM_P1;HPM_P2
2022/03/18 00:01:09;;;;;;;16.10;9.50;;;;;;;0.27;43.54;101630.27;431959;1270;362440;-60
2022/03/18 00:11:16;;;;;;;14.60;9.00;;;;;;;0.19;43.96;101628.63;431370;1270;141794;-61
2022/03/18 00:21:23;;;;;;;15.70;9.00;;;;;;;0.09;43.84;101633.34;431300;1268;141125;-62
2022/03/18 00:31:29;;;;;;;14.40;8.30;;;;;;;-0.03;44.14;101639.56;433568;1268;196781;-61
2022/03/18 00:41:36;;;;;;;17.00;10.40;;;;;;;-0.11;44.46;101637.55;432397;1270;141407;-61
2022/03/18 00:52:03;;;;;;;14.10;8.50;;;;;;;-0.18;44.59;101632.48;430301;1269;141728;-62
2022/03/18 01:02:09;;;;;;;14.90;9.20;;;;;;;-0.28;44.77;101640.08;431598;1271;141046;-61
2022/03/18 01:12:16;;;;;;;14.30;8.20;;;;;;;-0.36;45.06;101641.35;432050;1270;141609;-61
2022/03/18 01:22:22;;;;;;;11.10;7.80;;;;;;;-0.49;45.24;101637.39;431587;1270;142407;-61
2022/03/18 01:32:27;;;;;;;15.80;9.30;;;;;;;-0.57;45.24;101630.90;432033;1270;142971;-62
2022/03/18 01:42:33;;;;;;;12.20;7.00;;;;;;;-0.66;45.52;101641.27;430955;1270;142638;-62
2022/03/18 01:52:40;;;;;;;15.70;9.60;;;;;;;-0.81;45.90;101643.09;432364;1270;142661;-60
2022/03/18 02:02:45;;;;;;;12.70;9.80;;;;;;;-0.92;46.16;101646.70;432325;1270;143074;-61
2022/03/18 02:12:51;;;;;;;18.20;10.30;;;;;;;-1.07;46.53;101659.33;431325;1270;142527;-62
2022/03/18 02:22:58;;;;;;;12.90;9.10;;;;;;;-1.22;46.71;101662.52;431661;1270;141753;-59
2022/03/18 02:33:04;;;;;;;12.80;8.60;;;;;;;-1.32;46.97;101671.43;435624;1269;141884;-59
2022/03/18 02:43:10;;;;;;;16.00;8.30;;;;;;;-1.42;47.30;101672.29;430466;1270;141214;-60
2022/03/18 02:53:15;;;;;;;17.10;10.10;;;;;;;-1.50;47.63;101677.11;432378;1269;140781;-62
2022/03/18 03:03:22;;;;;;;13.80;8.90;;;;;;;-1.54;47.85;101676.86;432541;1269;141611;-62
2022/03/18 03:13:26;;;;;;;;;;;;;;;-1.60;47.97;101676.41;432873;1269;142387;-61
2022/03/18 03:23:32;;;;;;;10.80;8.40;;;;;;;-1.65;48.03;101697.94;432089;1270;129384;-61
2022/03/18 03:33:38;;;;;;;15.70;9.20;;;;;;;-1.73;48.25;101712.40;430921;1270;143459;-62
2022/03/18 03:43:44;;;;;;;11.00;8.20;;;;;;;-1.80;48.31;101729.05;431670;1270;146777;-60
2022/03/18 03:53:50;;;;;;;14.20;8.80;;;;;;;-1.87;48.25;101732.52;431346;1269;141343;-61
2022/03/18 04:03:56;;;;;;;14.60;9.10;;;;;;;-1.90;48.25;101733.33;430461;1269;141455;-62
2022/03/18 04:14:02;;;;;;;9.90;7.10;;;;;;;-1.90;48.29;101746.70;430574;1269;140945;-61
2022/03/18 04:24:08;;;;;;;13.60;8.30;;;;;;;-1.93;48.39;101754.20;430772;1270;141998;-62
2022/03/18 04:34:19;;;;;;;12.70;8.00;;;;;;;-1.99;48.56;101756.63;431795;1270;141920;-60
2022/03/18 04:44:25;;;;;;;11.40;7.40;;;;;;;-1.99;48.47;101772.45;431059;1270;141586;-61
2022/03/18 04:54:31;;;;;;;15.10;10.70;;;;;;;-1.85;48.34;101782.52;430622;1270;143383;-61
2022/03/18 05:04:37;;;;;;;13.10;9.00;;;;;;;-1.74;48.27;101788.09;431058;1270;141274;-63
2022/03/18 05:14:43;;;;;;;9.20;7.50;;;;;;;-1.68;48.07;101801.27;434455;1270;141979;-61
2022/03/18 05:24:48;;;;;;;;;;;;;;;-1.47;47.76;101810.48;433241;1269;141650;-61
2022/03/18 05:34:54;;;;;;;15.30;7.60;;;;;;;-1.15;47.36;101814.25;431112;1270;126921;-61
2022/03/18 05:45:00;;;;;;;12.70;7.80;;;;;;;-0.52;46.79;101816.61;431821;1270;141134;-60
2022/03/18 05:55:07;;;;;;;9.70;6.70;;;;;;;3.85;43.53;101810.83;429532;1270;141160;-60
2022/03/18 06:05:16;;;;;;;10.70;7.30;;;;;;;3.77;40.55;101824.86;431388;1269;141486;-59
2022/03/18 06:15:22;;;;;;;9.00;6.70;;;;;;;2.91;40.53;101845.52;433158;1268;141799;-61
2022/03/18 06:25:28;;;;;;;12.20;7.40;;;;;;;3.48;39.84;101851.89;431596;1269;141181;-61
2022/03/18 06:35:34;;;;;;;8.80;6.50;;;;;;;4.93;38.43;101858.30;433014;1269;140762;-60
2022/03/18 06:45:40;;;;;;;9.90;5.90;;;;;;;6.01;37.10;101861.48;430516;1270;141304;-61
2022/03/18 06:55:46;;;;;;;7.80;6.00;;;;;;;7.08;35.44;101864.90;439032;1270;141062;-62
2022/03/18 07:05:52;;;;;;;7.70;6.40;;;;;;;7.72;34.64;101869.05;436411;1270;141262;-64
2022/03/18 07:17:54;;;;;;;7.40;6.10;;;;;;;8.85;33.60;101869.02;429446;1270;140352;-65
2022/03/18 07:26:26;;;;;;;7.60;6.10;;;;;;;9.18;32.09;101875.52;447341;1270;141601;-65
2022/03/18 07:36:33;;;;;;;6.00;5.00;;;;;;;11.65;31.05;101871.02;446999;1268;141536;-65
2022/03/18 07:46:39;;;;;;;9.40;6.00;;;;;;;13.66;27.91;101878.35;444615;1270;141865;-65
2022/03/18 07:56:44;;;;;;;9.50;6.20;;;;;;;15.93;26.32;101871.61;447627;1270;143764;-65
2022/03/18 08:06:50;;;;;;;5.20;4.70;;;;;;;18.57;24.50;101869.22;447084;1269;142644;-66
2022/03/18 08:16:56;;;;;;;8.70;6.00;;;;;;;21.23;22.41;101881.89;440130;1270;142225;-67
2022/03/18 08:27:02;;;;;;;7.80;5.50;;;;;;;23.10;20.87;101881.58;447894;1269;142593;-65
2022/03/18 08:37:09;;;;;;;6.50;5.60;;;;;;;24.39;19.44;101880.98;445105;1269;142147;-65
2022/03/18 08:47:15;;;;;;;7.00;6.30;;;;;;;23.62;18.30;101888.27;447830;1269;141509;-67
2022/03/18 08:57:21;;;;;;;6.80;6.10;;;;;;;22.82;18.23;101899.02;446975;1270;142637;-65
2022/03/18 09:07:28;;;;;;;7.70;6.50;;;;;;;22.07;18.10;101914.14;447880;1269;141529;-65
2022/03/18 09:17:34;;;;;;;13.50;7.60;;;;;;;14.83;19.72;101926.46;447920;1269;140989;-66
2022/03/18 09:27:40;;;;;;;7.50;6.20;;;;;;;10.49;22.12;101941.40;446982;1269;143833;-66
2022/03/18 09:37:46;;;;;;;7.80;6.40;;;;;;;8.72;23.61;101944.86;447399;1269;141771;-65
2022/03/18 09:47:53;;;;;;;7.80;5.20;;;;;;;7.52;24.71;101957.70;440603;1269;141680;-66
2022/03/18 09:57:59;;;;;;;8.90;6.10;;;;;;;6.77;25.62;101963.65;446987;1269;142649;-65
2022/03/18 10:08:06;;;;;;;7.50;5.40;;;;;;;6.51;26.37;101970.15;444292;1269;140409;-65
2022/03/18 10:18:16;;;;;;;6.70;4.70;;;;;;;6.29;26.57;101982.69;441337;1269;140750;-64
2022/03/18 10:28:37;;;;;;;9.20;6.20;;;;;;;6.00;26.97;101981.66;443586;1269;141441;-64
2022/03/18 10:38:43;;;;;;;5.30;4.10;;;;;;;5.81;26.97;101987.15;438034;1270;141476;-65
2022/03/18 10:49:04;;;;;;;10.10;5.40;;;;;;;5.60;26.80;101991.95;437027;1269;140752;-65
2022/03/18 10:59:12;;;;;;;6.20;4.10;;;;;;;5.51;27.31;101975.13;442234;1269;141531;-65
2022/03/18 11:09:20;;;;;;;4.60;3.80;;;;;;;5.68;27.35;101979.05;447200;1269;141584;-64
2022/03/18 11:19:27;;;;;;;5.80;4.10;;;;;;;5.81;27.25;101979.84;443288;1269;141529;-62
2022/03/18 11:29:34;;;;;;;3.90;3.50;;;;;;;5.85;27.20;101970.95;444369;1270;140418;-64
2022/03/18 11:39:40;;;;;;;7.90;4.60;;;;;;;5.82;27.41;101957.93;442685;1269;142047;-66
2022/03/18 11:49:46;;;;;;;6.20;4.40;;;;;;;5.90;27.75;101964.50;445018;1269;144042;-65
2022/03/18 11:59:53;;;;;;;5.90;5.00;;;;;;;6.00;28.10;101963.57;447701;1268;198390;-65
2022/03/18 12:10:00;;;;;;;6.20;4.50;;;;;;;6.25;28.11;101956.80;446728;1269;140914;-65
2022/03/18 12:20:08;;;;;;;7.30;4.50;;;;;;;6.32;27.79;101956.57;447556;1269;142291;-65
2022/03/18 12:30:17;;;;;;;5.90;4.50;;;;;;;6.41;27.55;101957.72;446862;1269;142144;-65
2022/03/18 12:40:23;;;;;;;5.90;4.90;;;;;;;6.55;27.25;101964.04;433832;1271;141340;-67
2022/03/18 12:50:33;;;;;;;5.50;3.90;;;;;;;6.46;27.13;101955.93;431105;1271;141720;-63
2022/03/18 13:00:42;;;;;;;8.70;4.40;;;;;;;6.50;27.03;101944.58;431244;1270;141300;-59
2022/03/18 13:10:56;;;;;;;6.30;5.00;;;;;;;6.55;26.98;101949.08;430830;1271;143320;-59
2022/03/18 13:21:04;;;;;;;6.00;5.30;;;;;;;6.65;26.98;101947.58;433158;1269;141180;-60
2022/03/18 13:41:48;;;;;;;10.30;6.30;;;;;;;6.78;27.76;101951.29;431037;1270;127096;-58
2022/03/18 13:52:03;;;;;;;7.90;6.50;;;;;;;6.72;27.75;101945.77;433602;1270;140945;-57
2022/03/18 14:02:10;;;;;;;9.10;6.40;;;;;;;6.69;28.10;101949.11;432184;1271;140925;-64
2022/03/18 14:12:17;;;;;;;10.90;6.60;;;;;;;6.67;28.27;101949.48;440374;1270;142463;-69
2022/03/18 14:22:35;;;;;;;7.90;6.40;;;;;;;6.64;28.19;101946.20;434590;1270;140727;-71
2022/03/18 14:32:43;;;;;;;8.10;5.20;;;;;;;6.62;28.21;101944.31;433612;1271;141721;-74
2022/03/18 14:42:50;;;;;;;8.20;4.90;;;;;;;6.60;28.29;101942.93;432697;1271;139929;-70
2022/03/18 14:52:57;;;;;;;6.90;5.00;;;;;;;6.53;28.08;101943.85;434326;1269;140420;-66
2022/03/18 15:03:03;;;;;;;9.20;6.20;;;;;;;6.41;28.11;101936.13;432501;1271;141206;-65
2022/03/18 15:13:11;;;;;;;11.00;5.10;;;;;;;6.28;28.10;101945.63;431581;1271;141199;-66
2022/03/18 15:23:17;;;;;;;8.40;5.50;;;;;;;6.19;28.19;101940.16;434696;1269;141772;-78
2022/03/18 15:33:23;;;;;;;6.70;5.00;;;;;;;6.10;28.54;101931.70;434373;1270;141066;-72
2022/03/18 15:43:29;;;;;;;7.20;5.00;;;;;;;5.98;28.24;101940.29;432516;1270;141404;-64
2022/03/18 15:53:35;;;;;;;15.20;6.40;;;;;;;5.78;28.34;101938.66;431223;1270;140290;-63
2022/03/18 16:03:41;;;;;;;9.40;5.20;;;;;;;5.56;28.31;101948.00;431158;1270;141537;-64
2022/03/18 16:13:47;;;;;;;6.90;5.40;;;;;;;5.31;28.41;101953.16;432299;1270;144135;-69
2022/03/18 16:23:55;;;;;;;8.10;5.60;;;;;;;5.05;27.86;101954.11;431314;1270;140417;-69
2022/03/18 16:34:02;;;;;;;7.80;5.60;;;;;;;4.69;28.03;101955.92;431770;1270;140579;-72
2022/03/18 16:44:08;;;;;;;9.40;5.90;;;;;;;4.28;28.31;101966.19;434046;1270;142263;-66
2022/03/18 16:54:14;;;;;;;8.90;5.80;;;;;;;3.95;28.66;101977.08;430693;1270;141700;-65
2022/03/18 17:04:23;;;;;;;8.00;5.70;;;;;;;3.68;29.19;101983.59;431153;1270;141745;-68
2022/03/18 17:14:31;;;;;;;10.70;7.10;;;;;;;3.34;29.64;101999.39;433865;1270;141852;-69
2022/03/18 17:24:36;;;;;;;16.30;12.30;;;;;;;3.01;30.39;102010.98;430957;1269;141453;-61
2022/03/18 17:34:43;;;;;;;20.20;11.90;;;;;;;2.74;30.87;102023.25;431412;1270;143221;-61
2022/03/18 17:44:50;;;;;;;23.00;14.50;;;;;;;2.44;31.32;102022.66;431085;1270;143265;-61
2022/03/18 17:54:56;;;;;;;15.00;10.60;;;;;;;2.19;31.88;102039.72;430234;1270;141856;-64
2022/03/18 18:05:02;;;;;;;17.80;12.30;;;;;;;2.20;32.30;102040.06;431818;1269;144016;-64
2022/03/18 18:15:11;;;;;;;14.30;10.30;;;;;;;2.07;32.77;102055.66;431427;1270;141044;-61
2022/03/18 18:25:17;;;;;;;22.20;13.00;;;;;;;1.90;33.03;102061.52;431521;1270;141475;-70
2022/03/18 18:35:23;;;;;;;25.00;14.50;;;;;;;1.64;33.54;102066.38;431204;1270;142097;-63
2022/03/18 18:45:30;;;;;;;25.60;14.90;;;;;;;1.54;34.04;102079.55;430543;1270;141521;-63
2022/03/18 18:55:36;;;;;;;34.50;19.90;;;;;;;1.28;34.56;102079.19;430356;1269;141415;-62
2022/03/18 19:05:43;;;;;;;27.30;16.70;;;;;;;1.04;34.81;102079.16;430878;1270;140980;-61
2022/03/18 19:15:50;;;;;;;31.00;18.90;;;;;;;0.94;35.36;102079.88;430744;1270;143427;-62
2022/03/18 19:25:56;;;;;;;28.20;17.00;;;;;;;0.91;35.63;102066.02;431690;1270;141959;-62
2022/03/18 19:36:03;;;;;;;30.50;16.10;;;;;;;0.87;35.83;102077.17;432266;1270;141323;-62
2022/03/18 19:46:09;;;;;;;28.50;17.00;;;;;;;0.86;35.73;102086.83;431262;1270;142660;-61
2022/03/18 20:06:39;;;;;;;20.90;15.10;;;;;;;0.27;36.34;102103.88;430203;1269;143012;-62
2022/03/18 20:16:46;;;;;;;26.60;17.00;;;;;;;0.15;36.97;102100.90;430886;1269;142162;-62
2022/03/18 20:26:52;;;;;;;26.40;15.10;;;;;;;0.18;37.62;102095.95;433034;1269;141138;-62
2022/03/18 20:37:01;;;;;;;23.60;15.30;;;;;;;0.25;37.70;102102.98;430942;1271;142603;-61
2022/03/18 20:47:09;;;;;;;24.00;14.20;;;;;;;0.26;37.94;102104.73;435168;1270;141013;-62
2022/03/18 20:57:27;;;;;;;19.10;14.30;;;;;;;0.08;38.40;102109.38;429589;1270;163779;-61
2022/03/18 21:07:37;;;;;;;26.50;16.50;;;;;;;-0.06;38.81;102114.77;430850;1270;142759;-64
2022/03/18 21:17:46;;;;;;;27.50;16.00;;;;;;;-0.12;39.17;102113.61;432291;1270;144554;-63
2022/03/18 21:38:19;;;;;;;22.90;15.60;;;;;;;-0.47;39.83;102103.91;429951;1271;141832;-62
2022/03/18 21:48:31;;;;;;;20.80;13.90;;;;;;;-0.64;40.03;102101.15;430388;1270;143312;-63
2022/03/18 21:58:37;;;;;;;29.00;16.50;;;;;;;-0.84;40.70;102108.77;430956;1270;142134;-65
2022/03/18 22:08:42;;;;;;;31.60;18.90;;;;;;;-0.97;41.00;102112.77;430403;1270;141883;-61
2022/03/18 22:18:48;;;;;;;36.90;20.80;;;;;;;-1.13;41.52;102114.42;430164;1269;142329;-62
2022/03/18 22:28:54;;;;;;;40.80;21.70;;;;;;;-1.25;42.09;102111.56;431096;1270;141923;-61
2022/03/18 22:39:00;;;;;;;23.90;13.70;;;;;;;-1.55;42.97;102103.05;430599;1270;141882;-61
2022/03/18 22:49:06;;;;;;;50.10;17.60;;;;;;;-1.76;43.41;102105.22;430239;1270;142537;-62
2022/03/18 22:59:13;;;;;;;30.50;20.60;;;;;;;-2.00;43.89;102099.06;431232;1270;141822;-60
2022/03/18 23:09:19;;;;;;;28.00;17.60;;;;;;;-2.01;44.07;102094.77;430058;1270;144640;-63
2022/03/18 23:19:24;;;;;;;24.00;16.10;;;;;;;-1.98;44.26;102092.61;431304;1271;141637;-62
2022/03/18 23:29:30;;;;;;;26.60;16.10;;;;;;;-2.00;44.34;102092.73;430409;1270;141120;-62
2022/03/18 23:39:36;;;;;;;28.20;17.70;;;;;;;-2.02;44.63;102087.17;431414;1270;142407;-62
2022/03/18 23:49:42;;;;;;;24.60;15.80;;;;;;;-2.17;44.87;102093.63;431300;1270;142166;-62
2022/03/18 23:59:52;;;;;;;23.20;16.00;;;;;;;-2.13;44.93;102089.27;431018;1270;375713;-67
